createdAt,value
2019-04-30T00:00:00.526Z,11.39
2019-04-30T00:02:45.618Z,11.26
2019-04-30T00:05:20.626Z,11.31
2019-04-30T00:07:58.438Z,11.34
2019-04-30T00:10:36.905Z,11.37
2019-04-30T00:13:03.585Z,11.35
2019-04-30T00:15:35.686Z,11.41
2019-04-30T00:18:06.688Z,11.47
2019-04-30T00:20:45.304Z,11.50
2019-04-30T00:23:18.114Z,11.45
2019-04-30T00:25:49.049Z,11.52
2019-04-30T00:28:20.914Z,11.52
2019-04-30T00:30:51.751Z,11.48
2019-04-30T00:33:25.164Z,11.41
2019-04-30T00:35:58.001Z,11.54
2019-04-30T00:38:36.025Z,11.53
2019-04-30T00:41:06.969Z,11.45
2019-04-30T00:43:37.665Z,11.54
2019-04-30T00:46:09.682Z,11.55
2019-04-30T00:48:40.294Z,11.59
2019-04-30T00:51:18.134Z,11.53
2019-04-30T00:53:51.377Z,11.48
2019-04-30T00:56:24.620Z,11.36
2019-04-30T00:58:57.792Z,11.32
2019-04-30T01:01:48.215Z,11.32
2019-04-30T01:04:34.969Z,11.40
2019-04-30T01:07:08.726Z,11.26
2019-04-30T01:09:43.588Z,11.36
2019-04-30T01:12:35.924Z,11.41
2019-04-30T01:15:06.734Z,11.36
2019-04-30T01:17:34.713Z,11.22
2019-04-30T01:20:05.792Z,11.26
2019-04-30T01:22:38.849Z,11.24
2019-04-30T01:25:13.410Z,11.31
2019-04-30T01:27:45.851Z,11.32
2019-04-30T01:30:18.719Z,11.28
2019-04-30T01:32:56.475Z,11.29
2019-04-30T01:35:23.879Z,11.23
2019-04-30T01:37:54.464Z,11.32
2019-04-30T01:40:25.125Z,11.37
2019-04-30T01:42:56.103Z,11.37
2019-04-30T01:45:30.110Z,11.42
2019-04-30T01:48:08.447Z,11.43
2019-04-30T01:50:33.792Z,11.38
2019-04-30T01:53:04.753Z,11.38
2019-04-30T01:55:47.011Z,11.38
2019-04-30T01:58:34.334Z,11.29
2019-04-30T02:01:06.702Z,11.30
2019-04-30T02:03:37.347Z,11.32
2019-04-30T02:06:11.423Z,11.21
2019-04-30T02:08:43.498Z,11.18
2019-04-30T02:11:14.178Z,11.20
2019-04-30T02:13:46.896Z,11.28
2019-04-30T02:16:21.147Z,11.25
2019-04-30T02:18:53.954Z,11.15
2019-04-30T02:21:25.742Z,11.16
2019-04-30T02:23:56.704Z,11.16
2019-04-30T02:26:35.693Z,11.28
2019-04-30T02:29:06.511Z,11.22
2019-04-30T02:31:40.570Z,11.25
2019-04-30T02:34:11.506Z,11.28
2019-04-30T02:36:43.789Z,11.30
2019-04-30T02:39:14.415Z,11.17
2019-04-30T02:41:45.379Z,11.23
2019-04-30T02:44:16.555Z,11.13
2019-04-30T02:46:50.324Z,11.15
2019-04-30T02:49:21.663Z,11.13
2019-04-30T02:51:52.540Z,11.12
2019-04-30T02:54:29.632Z,11.15
2019-04-30T02:57:02.092Z,11.13
2019-04-30T02:59:32.701Z,11.02
2019-04-30T03:02:03.439Z,11.10
2019-04-30T03:04:34.055Z,11.14
2019-04-30T03:07:04.930Z,11.06
2019-04-30T03:09:39.384Z,11.02
2019-04-30T03:12:10.137Z,11.01
2019-04-30T03:14:40.725Z,10.92
2019-04-30T03:17:23.471Z,11.00
2019-04-30T03:20:03.680Z,10.99
2019-04-30T03:22:34.445Z,10.98
2019-04-30T03:25:05.408Z,10.92
2019-04-30T03:27:36.057Z,10.77
2019-04-30T03:30:11.650Z,10.91
2019-04-30T03:32:42.897Z,10.96
2019-04-30T03:35:13.156Z,10.77
2019-04-30T03:37:54.016Z,10.71
2019-04-30T03:40:24.679Z,10.67
2019-04-30T03:42:55.396Z,10.74
2019-04-30T03:45:30.276Z,10.78
2019-04-30T03:48:01.991Z,10.78
2019-04-30T03:50:48.742Z,10.83
2019-04-30T03:53:05.435Z,10.73
2019-04-30T03:55:40.050Z,10.72
2019-04-30T03:58:11.478Z,10.76
2019-04-30T04:00:47.124Z,10.79
2019-04-30T04:03:22.901Z,10.73
2019-04-30T04:06:21.264Z,10.73
2019-04-30T04:08:55.631Z,10.76
2019-04-30T04:11:29.783Z,10.64
2019-04-30T04:14:00.205Z,10.58
2019-04-30T04:16:32.748Z,10.60
2019-04-30T04:19:09.666Z,10.58
2019-04-30T04:21:40.591Z,10.62
2019-04-30T04:24:11.382Z,10.53
2019-04-30T04:26:43.952Z,10.59
2019-04-30T04:29:14.487Z,10.63
2019-04-30T04:31:56.064Z,10.61
2019-04-30T04:34:26.663Z,10.67
2019-04-30T04:36:59.863Z,10.63
2019-04-30T04:39:29.816Z,10.58
2019-04-30T04:42:00.529Z,10.64
2019-04-30T04:44:31.168Z,10.71
2019-04-30T04:47:01.797Z,10.73
2019-04-30T04:49:32.466Z,10.73
2019-04-30T04:52:03.113Z,10.73
2019-04-30T04:54:33.816Z,10.75
2019-04-30T04:57:14.831Z,10.82
2019-04-30T04:59:42.528Z,10.80
2019-04-30T05:02:32.159Z,10.76
2019-04-30T05:05:02.341Z,10.77
2019-04-30T05:07:32.985Z,10.72
2019-04-30T05:10:03.681Z,10.79
2019-04-30T05:12:34.293Z,10.78
2019-04-30T05:15:05.223Z,10.74
2019-04-30T05:17:50.012Z,10.57
2019-04-30T05:20:20.697Z,10.65
2019-04-30T05:22:52.335Z,10.61
2019-04-30T05:25:29.577Z,10.67
2019-04-30T05:28:00.461Z,10.66
2019-04-30T05:30:35.953Z,10.67
2019-04-30T05:33:23.030Z,10.66
2019-04-30T05:35:53.859Z,10.57
2019-04-30T05:38:24.466Z,10.57
2019-04-30T05:40:55.131Z,10.58
2019-04-30T05:43:25.835Z,10.67
2019-04-30T05:45:58.541Z,10.50
2019-04-30T05:48:29.738Z,10.56
2019-04-30T05:51:04.625Z,10.63
2019-04-30T05:53:35.241Z,10.69
2019-04-30T05:56:11.053Z,10.73
2019-04-30T05:58:41.849Z,10.72
2019-04-30T06:01:12.574Z,10.71
2019-04-30T06:03:43.169Z,10.71
2019-04-30T06:06:13.934Z,10.78
2019-04-30T06:09:06.238Z,10.77
2019-04-30T06:11:53.915Z,10.78
2019-04-30T06:14:48.872Z,10.83
2019-04-30T06:17:19.840Z,10.93
2019-04-30T06:19:51.416Z,10.96
2019-04-30T06:22:22.556Z,10.87
2019-04-30T06:24:53.165Z,10.91
2019-04-30T06:27:23.932Z,10.97
2019-04-30T06:29:54.531Z,11.04
2019-04-30T06:32:25.354Z,11.07
2019-04-30T06:34:56.576Z,11.15
2019-04-30T06:37:28.784Z,11.15
2019-04-30T06:39:59.813Z,11.15
2019-04-30T06:42:31.520Z,11.21
2019-04-30T06:45:02.482Z,11.20
2019-04-30T06:47:34.474Z,11.25
2019-04-30T06:50:05.770Z,11.30
2019-04-30T06:52:36.485Z,11.28
2019-04-30T06:55:07.180Z,11.44
2019-04-30T06:57:38.401Z,11.57
2019-04-30T07:00:12.199Z,11.60
2019-04-30T07:02:43.890Z,11.56
2019-04-30T07:05:18.689Z,11.59
2019-04-30T07:08:09.003Z,11.55
2019-04-30T07:10:36.175Z,11.55
2019-04-30T07:13:14.711Z,11.52
2019-04-30T07:15:45.334Z,11.48
2019-04-30T07:18:16.090Z,11.61
2019-04-30T07:20:48.502Z,11.55
2019-04-30T07:23:19.385Z,11.68
2019-04-30T07:25:51.714Z,11.72
2019-04-30T07:28:43.776Z,11.80
2019-04-30T07:31:11.721Z,11.88
2019-04-30T07:33:34.871Z,11.96
2019-04-30T07:36:05.546Z,11.93
2019-04-30T07:38:43.178Z,11.90
2019-04-30T07:41:09.538Z,11.95
2019-04-30T07:43:40.307Z,11.97
2019-04-30T07:46:11.021Z,11.90
2019-04-30T07:48:41.803Z,12.10
2019-04-30T07:51:13.055Z,12.05
2019-04-30T07:53:43.950Z,12.15
2019-04-30T07:56:25.721Z,12.01
2019-04-30T07:58:46.879Z,12.01
2019-04-30T08:01:19.558Z,12.07
2019-04-30T08:03:52.166Z,12.12
2019-04-30T08:06:24.827Z,12.16
2019-04-30T08:08:58.327Z,12.18
2019-04-30T08:11:29.369Z,12.29
2019-04-30T08:14:00.344Z,12.42
2019-04-30T08:16:31.068Z,12.50
2019-04-30T08:19:01.684Z,12.63
2019-04-30T08:21:32.365Z,12.75
2019-04-30T08:24:05.066Z,12.76
2019-04-30T08:26:36.124Z,12.83
2019-04-30T08:29:06.838Z,12.82
2019-04-30T08:31:41.511Z,12.92
2019-04-30T08:34:12.214Z,12.94
2019-04-30T08:36:42.783Z,13.04
2019-04-30T08:39:13.378Z,13.05
2019-04-30T08:41:44.057Z,12.99
2019-04-30T08:44:14.720Z,12.99
2019-04-30T08:46:45.314Z,13.08
2019-04-30T08:49:16.063Z,13.04
2019-04-30T08:51:48.757Z,12.83
2019-04-30T08:54:19.874Z,12.58
2019-04-30T08:56:50.946Z,12.62
2019-04-30T08:59:21.650Z,12.82
2019-04-30T09:01:52.316Z,12.85
2019-04-30T09:04:25.621Z,12.96
2019-04-30T09:06:56.307Z,13.14
2019-04-30T09:09:26.906Z,13.26
2019-04-30T09:11:59.166Z,13.19
2019-04-30T09:14:30.161Z,13.07
2019-04-30T09:17:00.999Z,13.15
2019-04-30T09:19:31.671Z,13.24
2019-04-30T09:22:02.254Z,13.30
2019-04-30T09:24:32.936Z,13.31
2019-04-30T09:27:03.523Z,13.37
2019-04-30T09:29:34.216Z,13.46
2019-04-30T09:32:04.881Z,13.45
2019-04-30T09:34:35.476Z,13.43
2019-04-30T09:37:06.128Z,13.52
2019-04-30T09:39:36.713Z,13.65
2019-04-30T09:42:09.148Z,13.75
2019-04-30T09:44:39.921Z,13.78
2019-04-30T09:47:11.574Z,13.75
2019-04-30T09:49:42.254Z,13.76
2019-04-30T09:52:12.829Z,13.74
2019-04-30T09:54:43.537Z,13.95
2019-04-30T09:57:15.099Z,13.76
2019-04-30T09:59:45.694Z,13.87
2019-04-30T10:02:16.366Z,13.94
2019-04-30T10:04:47.750Z,14.02
2019-04-30T10:07:19.522Z,14.17
2019-04-30T10:09:50.950Z,13.88
2019-04-30T10:12:22.029Z,14.01
2019-04-30T10:14:52.740Z,14.07
2019-04-30T10:17:39.975Z,14.15
2019-04-30T10:20:12.724Z,14.27
2019-04-30T10:22:43.318Z,14.31
2019-04-30T10:25:14.212Z,14.47
2019-04-30T10:27:44.893Z,14.50
2019-04-30T10:30:16.238Z,14.47
2019-04-30T10:32:49.935Z,14.53
2019-04-30T10:35:23.922Z,14.67
2019-04-30T10:37:55.519Z,14.59
2019-04-30T10:40:28.706Z,14.60
2019-04-30T10:42:59.564Z,14.68
2019-04-30T10:45:30.531Z,14.65
2019-04-30T10:48:01.139Z,14.66
2019-04-30T10:50:33.830Z,14.47
2019-04-30T10:53:04.480Z,14.56
2019-04-30T10:55:35.164Z,14.64
2019-04-30T10:58:05.739Z,14.76
2019-04-30T11:00:38.973Z,14.84
2019-04-30T11:03:19.605Z,14.86
2019-04-30T11:05:43.186Z,14.77
2019-04-30T11:08:13.986Z,14.87
2019-04-30T11:10:48.866Z,14.86
2019-04-30T11:13:19.552Z,14.89
2019-04-30T11:15:50.313Z,14.95
2019-04-30T11:18:21.345Z,14.92
2019-04-30T11:20:52.347Z,15.06
2019-04-30T11:23:23.245Z,15.08
2019-04-30T11:25:54.981Z,15.21
2019-04-30T11:28:27.569Z,15.23
2019-04-30T11:31:26.416Z,15.14
2019-04-30T11:33:58.711Z,15.18
2019-04-30T11:36:38.890Z,15.29
2019-04-30T11:39:11.716Z,15.28
2019-04-30T11:41:42.409Z,15.29
2019-04-30T11:44:13.103Z,15.46
2019-04-30T11:47:29.906Z,15.49
2019-04-30T11:50:00.575Z,15.42
2019-04-30T11:52:31.252Z,15.38
2019-04-30T11:55:02.944Z,15.51
2019-04-30T11:57:33.715Z,15.67
2019-04-30T12:00:08.517Z,15.80
2019-04-30T12:02:40.795Z,15.80
2019-04-30T12:05:13.787Z,15.91
2019-04-30T12:07:46.192Z,15.97
2019-04-30T12:10:29.270Z,16.09
2019-04-30T12:12:59.671Z,16.01
2019-04-30T12:15:30.418Z,16.08
2019-04-30T12:18:01.114Z,16.09
2019-04-30T12:20:39.959Z,16.28
2019-04-30T12:23:11.933Z,16.15
2019-04-30T12:25:42.536Z,15.94
2019-04-30T12:28:13.308Z,15.97
2019-04-30T12:30:44.113Z,16.15
2019-04-30T12:33:14.786Z,16.27
2019-04-30T12:35:45.754Z,16.26
2019-04-30T12:38:16.445Z,16.30
2019-04-30T12:40:47.125Z,16.42
2019-04-30T12:43:18.782Z,16.52
2019-04-30T12:46:02.044Z,16.55
2019-04-30T12:48:44.559Z,16.52
2019-04-30T12:51:19.733Z,16.57
2019-04-30T12:53:57.584Z,16.61
2019-04-30T12:56:47.817Z,16.70
2019-04-30T12:59:22.660Z,16.64
2019-04-30T13:01:53.261Z,16.76
2019-04-30T13:04:23.921Z,16.85
2019-04-30T13:06:54.973Z,16.87
2019-04-30T13:09:26.613Z,17.02
2019-04-30T13:12:00.594Z,17.05
2019-04-30T13:14:32.239Z,17.09
2019-04-30T13:17:03.608Z,17.23
2019-04-30T13:19:35.388Z,17.32
2019-04-30T13:22:06.071Z,17.16
2019-04-30T13:24:36.925Z,17.09
2019-04-30T13:27:09.375Z,17.08
2019-04-30T13:29:58.234Z,17.12
2019-04-30T13:32:32.935Z,17.20
2019-04-30T13:35:03.886Z,17.18
2019-04-30T13:37:57.078Z,17.24
2019-04-30T13:40:33.356Z,17.18
2019-04-30T13:43:05.901Z,17.14
2019-04-30T13:45:36.586Z,17.09
2019-04-30T13:48:08.966Z,16.98
2019-04-30T13:50:41.784Z,16.94
2019-04-30T13:53:12.399Z,16.85
2019-04-30T13:55:48.854Z,16.95
2019-04-30T13:58:19.377Z,17.05
2019-04-30T14:00:50.024Z,17.02
2019-04-30T14:03:23.291Z,17.09
2019-04-30T14:05:54.103Z,17.07
2019-04-30T14:08:29.101Z,16.96
2019-04-30T14:10:59.905Z,17.05
2019-04-30T14:13:30.620Z,16.89
2019-04-30T14:16:03.446Z,16.87
2019-04-30T14:18:48.832Z,16.83
2019-04-30T14:21:32.243Z,16.90
2019-04-30T14:23:52.691Z,16.99
2019-04-30T14:26:40.912Z,17.06
2019-04-30T14:29:17.217Z,16.94
2019-04-30T14:31:52.070Z,16.95
2019-04-30T14:34:22.795Z,16.85
2019-04-30T14:36:53.418Z,16.68
2019-04-30T14:39:26.118Z,16.77
2019-04-30T14:42:00.075Z,16.76
2019-04-30T14:44:34.626Z,16.76
2019-04-30T14:47:11.574Z,16.78
2019-04-30T14:49:59.647Z,16.87
2019-04-30T14:52:24.794Z,16.89
2019-04-30T14:55:13.500Z,16.86
2019-04-30T14:57:45.913Z,16.83
2019-04-30T15:00:31.966Z,16.91
2019-04-30T15:03:16.709Z,16.80
2019-04-30T15:05:52.569Z,16.74
2019-04-30T15:08:25.451Z,16.72
2019-04-30T15:10:56.185Z,16.74
2019-04-30T15:13:29.518Z,16.78
2019-04-30T15:16:00.355Z,16.79
2019-04-30T15:18:32.080Z,16.77
2019-04-30T15:21:02.849Z,16.72
2019-04-30T15:23:56.375Z,16.63
2019-04-30T15:26:41.629Z,16.60
2019-04-30T15:29:16.325Z,16.48
2019-04-30T15:31:48.183Z,16.48
2019-04-30T15:34:19.388Z,16.48
2019-04-30T15:36:50.474Z,16.40
2019-04-30T15:39:26.163Z,16.36
2019-04-30T15:42:09.669Z,16.24
2019-04-30T15:44:45.347Z,16.35
2019-04-30T15:47:19.715Z,16.37
2019-04-30T15:49:50.657Z,16.34
2019-04-30T15:52:35.901Z,16.35
2019-04-30T15:55:06.765Z,16.27
2019-04-30T15:57:45.249Z,16.31
2019-04-30T16:00:18.727Z,16.31
2019-04-30T16:03:04.631Z,16.37
2019-04-30T16:05:40.409Z,16.33
2019-04-30T16:08:15.679Z,16.26
2019-04-30T16:10:51.090Z,16.26
2019-04-30T16:13:46.395Z,16.35
2019-04-30T16:16:19.212Z,16.34
2019-04-30T16:18:50.503Z,16.33
2019-04-30T16:21:22.424Z,16.19
2019-04-30T16:24:12.956Z,16.27
2019-04-30T16:26:49.494Z,16.24
2019-04-30T16:29:16.612Z,16.26
2019-04-30T16:31:49.415Z,16.19
2019-04-30T16:34:24.887Z,16.20
2019-04-30T16:36:56.700Z,16.23
2019-04-30T16:39:29.795Z,16.26
2019-04-30T16:42:00.821Z,16.14
2019-04-30T16:44:38.541Z,16.12
2019-04-30T16:47:14.470Z,16.13
2019-04-30T16:49:45.211Z,16.08
2019-04-30T16:52:18.910Z,16.02
2019-04-30T16:54:52.819Z,16.05
2019-04-30T16:57:30.301Z,15.92
2019-04-30T17:00:00.780Z,15.85
2019-04-30T17:02:32.352Z,15.95
2019-04-30T17:05:08.539Z,15.93
2019-04-30T17:07:43.637Z,15.89
2019-04-30T17:10:16.148Z,15.87
2019-04-30T17:13:01.907Z,15.74
2019-04-30T17:15:43.302Z,15.78
2019-04-30T17:18:13.966Z,15.82
2019-04-30T17:20:48.584Z,15.81
2019-04-30T17:23:19.486Z,15.79
2019-04-30T17:25:51.358Z,15.82
2019-04-30T17:28:22.088Z,15.85
2019-04-30T17:30:59.000Z,15.73
2019-04-30T17:33:29.795Z,15.72
2019-04-30T17:36:00.487Z,15.78
2019-04-30T17:38:34.794Z,15.63
2019-04-30T17:41:07.749Z,15.51
2019-04-30T17:43:41.633Z,15.51
2019-04-30T17:46:15.468Z,15.47
2019-04-30T17:48:46.341Z,15.42
2019-04-30T17:51:18.121Z,15.35
2019-04-30T17:54:06.663Z,15.26
2019-04-30T17:56:38.787Z,15.27
2019-04-30T17:59:09.999Z,15.20
2019-04-30T18:01:42.461Z,15.23
2019-04-30T18:04:14.175Z,15.25
2019-04-30T18:06:45.735Z,15.22
2019-04-30T18:09:19.078Z,15.23
2019-04-30T18:11:50.091Z,15.17
2019-04-30T18:14:20.947Z,15.16
2019-04-30T18:16:51.621Z,15.02
2019-04-30T18:19:46.003Z,15.09
2019-04-30T18:22:30.495Z,15.05
2019-04-30T18:25:05.730Z,15.07
2019-04-30T18:27:46.198Z,14.92
2019-04-30T18:30:19.034Z,14.91
2019-04-30T18:33:02.244Z,14.83
2019-04-30T18:35:32.979Z,14.79
2019-04-30T18:38:03.658Z,14.71
2019-04-30T18:40:35.445Z,14.64
2019-04-30T18:43:18.911Z,14.73
2019-04-30T18:45:53.235Z,14.62
2019-04-30T18:48:31.106Z,14.64
2019-04-30T18:51:15.969Z,14.63
2019-04-30T18:53:35.914Z,14.58
2019-04-30T18:56:12.162Z,14.58
2019-04-30T18:58:42.911Z,14.56
2019-04-30T19:01:14.150Z,14.50
2019-04-30T19:03:45.900Z,14.48
2019-04-30T19:06:26.267Z,14.42
2019-04-30T19:09:16.858Z,14.41
2019-04-30T19:12:11.246Z,14.50
2019-04-30T19:15:02.183Z,14.47
2019-04-30T19:17:52.526Z,14.42
2019-04-30T19:20:33.812Z,14.42
2019-04-30T19:23:06.154Z,14.33
2019-04-30T19:25:38.626Z,14.21
2019-04-30T19:28:14.331Z,14.20
2019-04-30T19:30:57.649Z,14.14
2019-04-30T19:33:29.230Z,14.11
2019-04-30T19:36:00.572Z,13.98
2019-04-30T19:38:31.460Z,13.97
2019-04-30T19:41:02.250Z,13.98
2019-04-30T19:43:33.063Z,13.98
2019-04-30T19:46:09.046Z,13.94
2019-04-30T19:48:41.955Z,13.86
2019-04-30T19:51:14.417Z,13.84
2019-04-30T19:53:51.831Z,13.88
2019-04-30T19:56:23.209Z,13.88
2019-04-30T19:59:02.073Z,13.80
2019-04-30T20:01:28.691Z,13.77
2019-04-30T20:04:00.830Z,13.79
2019-04-30T20:06:31.931Z,13.67
2019-04-30T20:09:03.331Z,13.72
2019-04-30T20:11:42.541Z,13.69
2019-04-30T20:14:18.658Z,13.67
2019-04-30T20:16:51.755Z,13.54
2019-04-30T20:19:23.064Z,13.52
2019-04-30T20:22:05.675Z,13.50
2019-04-30T20:24:42.194Z,13.51
2019-04-30T20:27:21.998Z,13.48
2019-04-30T20:29:55.978Z,13.42
2019-04-30T20:32:36.629Z,13.36
2019-04-30T20:35:07.146Z,13.31
2019-04-30T20:38:00.034Z,13.31
2019-04-30T20:40:43.346Z,13.24
2019-04-30T20:43:08.459Z,13.24
2019-04-30T20:45:39.042Z,13.15
2019-04-30T20:48:10.795Z,13.13
2019-04-30T20:50:50.713Z,13.14
2019-04-30T20:53:21.635Z,13.19
2019-04-30T20:55:54.726Z,13.06
2019-04-30T20:58:25.360Z,13.06
2019-04-30T21:01:04.095Z,13.07
2019-04-30T21:03:29.592Z,13.07
2019-04-30T21:06:11.227Z,12.94
2019-04-30T21:08:47.691Z,12.89
2019-04-30T21:11:30.399Z,12.87
2019-04-30T21:14:08.956Z,12.83
2019-04-30T21:16:46.505Z,12.66
2019-04-30T21:19:17.651Z,12.62
2019-04-30T21:22:00.734Z,12.74
2019-04-30T21:24:32.851Z,12.64
2019-04-30T21:27:04.028Z,12.65
2019-04-30T21:29:35.146Z,12.65
2019-04-30T21:32:07.912Z,12.61
2019-04-30T21:34:44.297Z,12.54
2019-04-30T21:37:37.338Z,12.50
2019-04-30T21:40:09.714Z,12.35
2019-04-30T21:42:52.563Z,12.43
2019-04-30T21:45:25.114Z,12.36
2019-04-30T21:48:19.154Z,12.33
2019-04-30T21:51:11.372Z,12.22
2019-04-30T21:53:46.789Z,12.19
2019-04-30T21:56:19.376Z,12.22
2019-04-30T21:59:01.603Z,12.16
2019-04-30T22:01:32.642Z,12.17
2019-04-30T22:04:14.700Z,12.16
2019-04-30T22:07:00.699Z,12.16
2019-04-30T22:09:43.489Z,12.13
2019-04-30T22:12:23.656Z,12.13
2019-04-30T22:14:55.551Z,12.09
2019-04-30T22:17:26.300Z,11.94
2019-04-30T22:19:59.699Z,11.94
2019-04-30T22:22:30.449Z,11.82
2019-04-30T22:25:01.606Z,11.80
2019-04-30T22:27:33.591Z,11.84
2019-04-30T22:30:04.929Z,11.78
2019-04-30T22:32:51.931Z,11.69
2019-04-30T22:35:44.833Z,11.69
2019-04-30T22:38:29.083Z,11.60
2019-04-30T22:41:06.368Z,11.57
2019-04-30T22:43:38.462Z,11.53
2019-04-30T22:46:14.320Z,11.53
2019-04-30T22:48:47.059Z,11.43
2019-04-30T22:51:18.834Z,11.42
2019-04-30T22:53:51.651Z,11.41
2019-04-30T22:56:25.568Z,11.43
2019-04-30T22:58:56.629Z,11.47
2019-04-30T23:01:34.982Z,11.40
2019-04-30T23:04:14.376Z,11.33
2019-04-30T23:06:45.096Z,11.29
2019-04-30T23:09:16.409Z,11.17
2019-04-30T23:11:47.175Z,11.17
2019-04-30T23:14:17.837Z,11.15
2019-04-30T23:16:56.384Z,11.12
2019-04-30T23:19:31.049Z,11.00
2019-04-30T23:22:07.023Z,10.89
2019-04-30T23:24:37.721Z,10.83
2019-04-30T23:27:13.115Z,10.80
2019-04-30T23:29:43.711Z,10.81
2019-04-30T23:32:17.887Z,10.85
2019-04-30T23:34:51.621Z,10.86
2019-04-30T23:37:24.343Z,10.76
2019-04-30T23:40:23.745Z,10.77
2019-04-30T23:42:55.407Z,10.80
2019-04-30T23:45:27.258Z,10.80
2019-04-30T23:47:57.984Z,10.74
2019-04-30T23:50:28.733Z,10.64
2019-04-30T23:53:10.559Z,10.67
2019-04-30T23:55:41.368Z,10.57
2019-04-30T23:58:12.094Z,10.64
